createdAt,value
2023-05-04T00:00:53.941Z,100413.88
2023-05-04T00:03:21.833Z,100406.97
2023-05-04T00:05:49.499Z,100408.47
2023-05-04T00:08:17.660Z,100405.47
2023-05-04T00:10:45.321Z,100405.53
2023-05-04T00:13:12.965Z,100405.41
2023-05-04T00:15:42.231Z,100401.97
2023-05-04T00:18:09.789Z,100404.38
2023-05-04T00:20:37.408Z,100396.34
2023-05-04T00:23:04.992Z,100398.72
2023-05-04T00:25:32.853Z,100395.19
2023-05-04T00:28:00.730Z,100395.19
2023-05-04T00:30:30.817Z,100391.56
2023-05-04T00:32:59.900Z,100390.53
2023-05-04T00:35:27.513Z,100392.06
2023-05-04T00:37:55.367Z,100385.88
2023-05-04T00:40:23.187Z,100378.19
2023-05-04T00:42:50.890Z,100387.53
2023-05-04T00:45:19.095Z,100370.38
2023-05-04T00:47:46.741Z,100379.59
2023-05-04T00:50:15.698Z,100379.47
2023-05-04T00:52:45.050Z,100375.16
2023-05-04T00:55:14.347Z,100374.31
2023-05-04T00:57:42.620Z,100369.81
2023-05-04T01:00:13.133Z,100376.56
2023-05-04T01:02:41.113Z,100367.06
2023-05-04T01:05:09.947Z,100374.72
2023-05-04T01:07:45.302Z,100364.34
2023-05-04T01:10:18.720Z,100367.72
2023-05-04T01:12:53.125Z,100368.25
2023-05-04T01:15:21.575Z,100366.38
2023-05-04T01:17:49.473Z,100368.06
2023-05-04T01:20:17.393Z,100371.31
2023-05-04T01:22:46.512Z,100368.75
2023-05-04T01:25:14.195Z,100370.41
2023-05-04T01:27:47.954Z,100363.53
2023-05-04T01:30:19.873Z,100363.47
2023-05-04T01:32:49.293Z,100368.66
2023-05-04T01:35:17.155Z,100374.66
2023-05-04T01:37:48.746Z,100365.97
2023-05-04T01:40:16.618Z,100365.03
2023-05-04T01:42:44.114Z,100357.28
2023-05-04T01:45:13.512Z,100366.56
2023-05-04T01:47:41.724Z,100356.28
2023-05-04T01:50:09.822Z,100363.16
2023-05-04T01:52:37.478Z,100366.41
2023-05-04T01:55:07.952Z,100370.69
2023-05-04T01:57:35.559Z,100366.41
2023-05-04T02:00:03.905Z,100368.19
2023-05-04T02:02:43.269Z,100369.13
2023-05-04T02:05:12.856Z,100369.94
2023-05-04T02:07:40.448Z,100372.59
2023-05-04T02:10:10.694Z,100367.59
2023-05-04T02:12:38.421Z,100373.56
2023-05-04T02:15:06.902Z,100368.19
2023-05-04T02:17:34.690Z,100364.56
2023-05-04T02:20:04.637Z,100367.69
2023-05-04T02:22:32.636Z,100366.66
2023-05-04T02:25:00.161Z,100381.84
2023-05-04T02:27:28.997Z,100368.03
2023-05-04T02:29:58.336Z,100367.91
2023-05-04T02:32:26.289Z,100367.09
2023-05-04T02:34:54.231Z,100367.00
2023-05-04T02:37:22.320Z,100364.06
2023-05-04T02:39:50.006Z,100358.84
2023-05-04T02:42:17.762Z,100363.81
2023-05-04T02:44:46.681Z,100362.81
2023-05-04T02:47:14.210Z,100363.63
2023-05-04T02:53:54.089Z,100358.41
2023-05-04T02:56:21.808Z,100358.31
2023-05-04T02:58:49.387Z,100355.84
2023-05-04T03:01:18.347Z,100355.84
2023-05-04T03:03:46.091Z,100362.56
2023-05-04T03:06:13.735Z,100359.09
2023-05-04T03:08:41.280Z,100359.09
2023-05-04T03:11:08.947Z,100353.81
2023-05-04T03:13:36.563Z,100360.69
2023-05-04T03:16:05.496Z,100352.22
2023-05-04T03:21:20.227Z,100348.44
2023-05-04T03:23:48.932Z,100339.84
2023-05-04T03:26:17.395Z,100343.06
2023-05-04T03:28:45.431Z,100344.94
2023-05-04T03:31:13.036Z,100344.09
2023-05-04T03:33:42.407Z,100337.94
2023-05-04T03:36:10.276Z,100333.56
2023-05-04T03:38:39.669Z,100332.56
2023-05-04T03:41:07.444Z,100327.19
2023-05-04T03:43:35.021Z,100325.38
2023-05-04T03:46:02.996Z,100326.28
2023-05-04T03:48:30.602Z,100314.31
2023-05-04T03:50:59.625Z,100319.31
2023-05-04T03:53:27.368Z,100318.56
2023-05-04T03:55:55.065Z,100315.06
2023-05-04T03:58:22.979Z,100318.31
2023-05-04T04:00:50.558Z,100314.94
2023-05-04T04:03:19.046Z,100318.44
2023-05-04T04:05:46.746Z,100311.53
2023-05-04T04:08:15.671Z,100306.41
2023-05-04T04:10:43.455Z,100313.19
2023-05-04T04:13:11.167Z,100308.88
2023-05-04T04:15:38.874Z,100302.94
2023-05-04T04:18:06.793Z,100299.69
2023-05-04T04:20:34.423Z,100301.56
2023-05-04T04:23:01.978Z,100310.44
2023-05-04T04:25:31.508Z,100312.41
2023-05-04T04:27:59.103Z,100314.19
2023-05-04T04:30:26.607Z,100320.63
2023-05-04T04:32:56.904Z,100316.41
2023-05-04T04:35:24.616Z,100306.97
2023-05-04T04:37:52.232Z,100315.53
2023-05-04T04:40:19.770Z,100316.41
2023-05-04T04:42:48.764Z,100321.78
2023-05-04T04:45:16.390Z,100313.34
2023-05-04T04:47:45.135Z,100319.53
2023-05-04T04:50:13.136Z,100320.28
2023-05-04T04:52:41.358Z,100308.41
2023-05-04T04:55:09.754Z,100313.78
2023-05-04T04:57:37.337Z,100307.16
2023-05-04T05:00:09.414Z,100310.56
2023-05-04T05:02:37.568Z,100310.78
2023-05-04T05:05:05.940Z,100319.31
2023-05-04T05:07:33.923Z,100318.44
2023-05-04T05:10:01.582Z,100320.38
2023-05-04T05:12:29.457Z,100324.78
2023-05-04T05:14:57.105Z,100326.88
2023-05-04T05:17:27.530Z,100329.63
2023-05-04T05:19:55.117Z,100334.09
2023-05-04T05:22:22.736Z,100332.59
2023-05-04T05:24:50.266Z,100341.53
2023-05-04T05:27:18.083Z,100336.44
2023-05-04T05:29:45.661Z,100336.78
2023-05-04T05:32:13.347Z,100339.41
2023-05-04T05:34:42.640Z,100331.06
2023-05-04T05:37:10.514Z,100334.94
2023-05-04T05:39:38.100Z,100337.69
2023-05-04T05:42:06.007Z,100331.84
2023-05-04T05:44:37.302Z,100331.19
2023-05-04T05:47:04.946Z,100334.97
2023-05-04T05:49:32.798Z,100334.34
2023-05-04T05:52:02.173Z,100327.84
2023-05-04T05:54:30.845Z,100333.34
2023-05-04T05:56:58.595Z,100338.16
2023-05-04T05:59:26.217Z,100333.53
2023-05-04T06:01:53.934Z,100337.53
2023-05-04T06:04:21.567Z,100324.28
2023-05-04T06:06:49.269Z,100326.50
2023-05-04T06:09:18.209Z,100318.31
2023-05-04T06:11:46.138Z,100311.13
2023-05-04T06:14:13.672Z,100320.28
2023-05-04T06:16:41.380Z,100315.63
2023-05-04T06:19:09.099Z,100310.09
2023-05-04T06:21:36.843Z,100313.03
2023-05-04T06:24:04.740Z,100305.69
2023-05-04T06:26:33.718Z,100301.00
2023-05-04T06:29:01.312Z,100301.41
2023-05-04T06:31:29.006Z,100305.28
2023-05-04T06:33:57.691Z,100309.00
2023-05-04T06:36:26.060Z,100310.97
2023-05-04T06:38:55.582Z,100307.75
2023-05-04T06:41:23.348Z,100312.47
2023-05-04T06:43:52.245Z,100305.88
2023-05-04T06:46:20.168Z,100307.81
2023-05-04T06:48:47.794Z,100312.44
2023-05-04T06:51:16.058Z,100316.09
2023-05-04T06:53:43.639Z,100323.13
2023-05-04T06:56:11.260Z,100325.16
2023-05-04T06:58:38.905Z,100318.47
2023-05-04T07:01:09.823Z,100314.34
2023-05-04T07:03:38.750Z,100318.03
2023-05-04T07:06:06.377Z,100314.72
2023-05-04T07:08:34.719Z,100308.16
2023-05-04T07:11:02.580Z,100301.38
2023-05-04T07:13:30.257Z,100303.19
2023-05-04T07:15:57.945Z,100301.63
2023-05-04T07:18:26.909Z,100304.38
2023-05-04T07:20:58.841Z,100300.22
2023-05-04T07:23:33.827Z,100296.94
2023-05-04T07:26:01.783Z,100300.59
2023-05-04T07:28:29.398Z,100291.25
2023-05-04T07:30:56.996Z,100283.66
2023-05-04T07:33:25.621Z,100290.69
2023-05-04T07:35:59.373Z,100279.53
2023-05-04T07:38:27.355Z,100280.56
2023-05-04T07:40:55.466Z,100278.84
2023-05-04T07:43:23.332Z,100278.91
2023-05-04T07:45:53.285Z,100278.09
2023-05-04T07:48:21.199Z,100278.16
2023-05-04T07:50:50.306Z,100279.06
2023-05-04T07:53:20.659Z,100261.00
2023-05-04T07:55:48.588Z,100273.16
2023-05-04T07:58:16.691Z,100258.50
2023-05-04T08:00:44.556Z,100262.09
2023-05-04T08:03:12.237Z,100265.59
2023-05-04T08:05:39.874Z,100261.34
2023-05-04T08:08:09.290Z,100269.22
2023-05-04T08:10:38.655Z,100264.09
2023-05-04T08:13:06.658Z,100258.94
2023-05-04T08:15:34.294Z,100260.69
2023-05-04T08:18:02.050Z,100262.44
2023-05-04T08:20:29.921Z,100254.72
2023-05-04T08:22:57.935Z,100248.69
2023-05-04T08:25:25.555Z,100253.06
2023-05-04T08:27:54.537Z,100247.03
2023-05-04T08:30:22.302Z,100254.84
2023-05-04T08:32:51.109Z,100241.91
2023-05-04T08:35:18.894Z,100255.84
2023-05-04T08:37:46.587Z,100242.06
2023-05-04T08:40:15.293Z,100238.63
2023-05-04T08:42:47.904Z,100233.47
2023-05-04T08:45:17.327Z,100235.19
2023-05-04T08:47:45.418Z,100223.94
2023-05-04T08:50:13.599Z,100233.50
2023-05-04T08:52:46.145Z,100240.44
2023-05-04T08:55:14.966Z,100243.06
2023-05-04T08:57:44.378Z,100238.72
2023-05-04T09:00:13.436Z,100237.88
2023-05-04T09:02:42.734Z,100240.44
2023-05-04T09:05:12.010Z,100236.94
2023-05-04T09:07:39.627Z,100229.09
2023-05-04T09:10:08.479Z,100223.84
2023-05-04T09:12:37.561Z,100232.56
2023-05-04T09:15:16.569Z,100223.84
2023-05-04T09:17:57.831Z,100229.06
2023-05-04T09:20:26.611Z,100227.25
2023-05-04T09:23:06.929Z,100223.78
2023-05-04T09:25:35.247Z,100226.34
2023-05-04T09:28:02.821Z,100216.81
2023-05-04T09:30:30.361Z,100211.47
2023-05-04T09:32:59.372Z,100214.91
2023-05-04T09:35:33.531Z,100206.97
2023-05-04T09:38:02.230Z,100219.06
2023-05-04T09:40:33.565Z,100206.81
2023-05-04T09:43:01.287Z,100205.88
2023-05-04T09:45:39.906Z,100212.72
2023-05-04T09:48:19.042Z,100203.91
2023-05-04T09:50:52.873Z,100198.53
2023-05-04T09:53:23.204Z,100204.47
2023-05-04T09:55:59.994Z,100193.16
2023-05-04T09:58:31.149Z,100191.28
2023-05-04T10:01:01.839Z,100196.41
2023-05-04T10:03:31.698Z,100200.75
2023-05-04T10:06:00.176Z,100190.16
2023-05-04T10:08:28.498Z,100183.13
2023-05-04T10:10:56.140Z,100182.91
2023-05-04T10:13:24.181Z,100183.59
2023-05-04T10:16:12.986Z,100172.88
2023-05-04T10:19:02.246Z,100171.88
2023-05-04T10:21:33.971Z,100161.03
2023-05-04T10:24:31.160Z,100159.94
2023-05-04T10:27:08.206Z,100164.84
2023-05-04T10:29:36.052Z,100157.06
2023-05-04T10:32:04.030Z,100147.44
2023-05-04T10:34:34.609Z,100141.81
2023-05-04T10:37:03.466Z,100140.06
2023-05-04T10:39:32.816Z,100138.91
2023-05-04T10:42:02.738Z,100134.38
2023-05-04T10:44:31.449Z,100134.16
2023-05-04T10:47:00.655Z,100130.41
2023-05-04T10:49:28.452Z,100126.44
2023-05-04T10:52:08.615Z,100126.69
2023-05-04T10:54:37.044Z,100125.47
2023-05-04T10:57:06.585Z,100109.25
2023-05-04T10:59:36.608Z,100108.00
2023-05-04T11:02:06.471Z,100104.88
2023-05-04T11:04:34.564Z,100100.00
2023-05-04T11:07:04.878Z,100090.03
2023-05-04T11:09:38.843Z,100091.63
2023-05-04T11:12:10.260Z,100091.09
2023-05-04T11:14:42.275Z,100097.06
2023-05-04T11:17:26.817Z,100073.59
2023-05-04T11:19:54.886Z,100064.03
2023-05-04T11:22:22.890Z,100074.25
2023-05-04T11:24:52.818Z,100073.50
2023-05-04T11:27:22.391Z,100067.38
2023-05-04T11:29:56.864Z,100069.28
2023-05-04T11:32:34.834Z,100056.06
2023-05-04T11:35:02.764Z,100062.97
2023-05-04T11:37:31.336Z,100070.97
2023-05-04T11:40:00.495Z,100055.69
2023-05-04T11:42:28.286Z,100062.41
2023-05-04T11:44:56.909Z,100051.69
2023-05-04T11:47:26.368Z,100050.25
2023-05-04T11:49:54.294Z,100042.75
2023-05-04T11:52:23.695Z,100037.91
2023-05-04T11:54:56.815Z,100037.56
2023-05-04T11:57:25.657Z,100037.78
2023-05-04T11:59:53.212Z,100041.66
2023-05-04T12:02:21.359Z,100034.06
2023-05-04T12:04:48.978Z,100029.38
2023-05-04T12:07:16.801Z,100028.91
2023-05-04T12:09:45.391Z,100024.94
2023-05-04T12:12:13.116Z,100023.88
2023-05-04T12:14:50.127Z,100016.25
2023-05-04T12:17:17.665Z,100008.34
2023-05-04T12:19:50.510Z,100004.91
2023-05-04T12:22:18.360Z,100014.84
2023-05-04T12:24:45.937Z,100003.53
2023-05-04T12:27:14.092Z,100001.59
2023-05-04T12:29:41.719Z,100000.28
2023-05-04T12:32:10.624Z,99993.50
2023-05-04T12:34:38.333Z,99988.19
2023-05-04T12:37:06.169Z,99984.75
2023-05-04T12:39:34.264Z,99993.44
2023-05-04T12:42:02.059Z,99986.78
2023-05-04T12:44:29.672Z,99981.41
2023-05-04T12:46:57.420Z,99977.63
2023-05-04T12:49:26.331Z,99971.22
2023-05-04T12:51:53.939Z,99967.06
2023-05-04T12:54:21.541Z,99968.50
2023-05-04T12:56:49.106Z,99967.88
2023-05-04T12:59:16.639Z,99970.16
2023-05-04T13:01:44.305Z,99968.94
2023-05-04T13:04:11.941Z,99965.91
2023-05-04T13:06:42.410Z,99965.88
2023-05-04T13:09:10.189Z,99956.03
2023-05-04T13:11:37.701Z,99955.56
2023-05-04T13:14:05.482Z,99952.88
2023-05-04T13:16:33.608Z,99956.81
2023-05-04T13:19:01.162Z,99956.28
2023-05-04T13:21:28.725Z,99941.53
2023-05-04T13:23:59.182Z,99940.44
2023-05-04T13:26:26.967Z,99931.44
2023-05-04T13:28:54.492Z,99925.88
2023-05-04T13:31:22.078Z,99919.53
2023-05-04T13:33:50.417Z,99904.47
2023-05-04T13:36:18.145Z,99904.19
2023-05-04T13:38:45.723Z,99899.63
2023-05-04T13:41:14.637Z,99908.25
2023-05-04T13:43:42.176Z,99897.25
2023-05-04T13:46:09.804Z,99901.03
2023-05-04T13:48:37.399Z,99893.72
2023-05-04T13:51:05.387Z,99888.81
2023-05-04T13:53:32.897Z,99886.47
2023-05-04T13:56:00.588Z,99888.06
2023-05-04T13:58:29.463Z,99876.91
2023-05-04T14:00:57.702Z,99885.97
2023-05-04T14:03:25.480Z,99877.56
2023-05-04T14:05:53.722Z,99865.22
2023-05-04T14:08:21.330Z,99857.25
2023-05-04T14:10:48.832Z,99860.97
2023-05-04T14:13:16.947Z,99848.34
2023-05-04T14:15:46.229Z,99849.78
2023-05-04T14:18:13.850Z,99842.09
2023-05-04T14:20:41.405Z,99846.47
2023-05-04T14:23:08.958Z,99838.34
2023-05-04T14:25:36.634Z,99832.84
2023-05-04T14:28:04.405Z,99829.03
2023-05-04T14:30:33.689Z,99828.91
2023-05-04T14:33:03.648Z,99816.44
2023-05-04T14:35:31.371Z,99817.75
2023-05-04T14:37:58.937Z,99813.47
2023-05-04T14:40:26.456Z,99807.06
2023-05-04T14:42:54.022Z,99810.16
2023-05-04T14:45:21.911Z,99803.81
2023-05-04T14:47:49.460Z,99805.72
2023-05-04T14:50:18.627Z,99806.41
2023-05-04T14:52:46.212Z,99797.88
2023-05-04T14:55:14.248Z,99814.47
2023-05-04T14:57:42.035Z,99811.47
2023-05-04T15:00:11.190Z,99818.28
2023-05-04T15:02:39.314Z,99808.59
2023-05-04T15:05:09.692Z,99812.47
2023-05-04T15:07:38.642Z,99809.75
2023-05-04T15:10:08.157Z,99816.22
2023-05-04T15:12:36.183Z,99811.44
2023-05-04T15:15:03.812Z,99802.06
2023-05-04T15:17:31.702Z,99796.19
2023-05-04T15:19:59.283Z,99795.44
2023-05-04T15:22:26.822Z,99798.84
2023-05-04T15:24:56.557Z,99790.34
2023-05-04T15:27:24.139Z,99799.06
2023-05-04T15:29:51.838Z,99795.44
2023-05-04T15:32:19.413Z,99785.81
2023-05-04T15:34:57.427Z,99779.53
2023-05-04T15:37:31.802Z,99779.28
2023-05-04T15:40:02.501Z,99775.94
2023-05-04T15:42:30.450Z,99777.56
2023-05-04T15:44:58.126Z,99772.25
2023-05-04T15:47:25.724Z,99775.34
2023-05-04T15:49:53.300Z,99782.00
2023-05-04T15:52:20.808Z,99771.31
2023-05-04T15:54:48.345Z,99771.38
2023-05-04T15:57:17.184Z,99768.69
2023-05-04T15:59:47.447Z,99773.63
2023-05-04T16:02:15.085Z,99760.16
2023-05-04T16:04:42.663Z,99762.41
2023-05-04T16:07:10.980Z,99753.88
2023-05-04T16:09:38.528Z,99759.75
2023-05-04T16:12:06.707Z,99768.25
2023-05-04T16:14:35.977Z,99761.19
2023-05-04T16:17:03.633Z,99756.41
2023-05-04T16:19:31.439Z,99765.34
2023-05-04T16:21:59.140Z,99765.38
2023-05-04T16:24:26.762Z,99764.97
2023-05-04T16:26:54.371Z,99758.50
2023-05-04T16:29:21.966Z,99758.19
2023-05-04T16:31:50.877Z,99756.22
2023-05-04T16:34:18.452Z,99761.34
2023-05-04T16:36:46.019Z,99758.75
2023-05-04T16:39:14.479Z,99754.84
2023-05-04T16:41:46.449Z,99750.06
2023-05-04T16:44:13.849Z,99748.59
2023-05-04T16:46:41.450Z,99749.34
2023-05-04T16:49:11.889Z,99749.22
2023-05-04T16:51:41.832Z,99744.38
2023-05-04T16:54:09.453Z,99746.41
2023-05-04T16:56:37.267Z,99734.63
2023-05-04T16:59:05.605Z,99742.56
2023-05-04T17:01:33.730Z,99736.91
2023-05-04T17:04:01.564Z,99734.16
2023-05-04T17:06:31.016Z,99729.06
2023-05-04T17:08:58.561Z,99722.34
2023-05-04T17:11:26.745Z,99724.00
2023-05-04T17:13:54.499Z,99727.34
2023-05-04T17:16:22.030Z,99732.34
2023-05-04T17:18:49.808Z,99735.75
2023-05-04T17:21:17.566Z,99734.47
2023-05-04T17:23:46.466Z,99732.06
2023-05-04T17:26:14.019Z,99729.78
2023-05-04T17:28:41.592Z,99734.19
2023-05-04T17:31:10.997Z,99732.19
2023-05-04T17:33:38.807Z,99725.69
2023-05-04T17:36:07.657Z,99737.25
2023-05-04T17:38:35.507Z,99741.13
2023-05-04T17:41:04.575Z,99733.63
2023-05-04T17:43:32.267Z,99730.13
2023-05-04T17:46:00.214Z,99734.84
2023-05-04T17:48:28.245Z,99745.09
2023-05-04T17:50:56.256Z,99745.13
2023-05-04T17:53:23.925Z,99740.59
2023-05-04T17:55:51.473Z,99745.34
2023-05-04T17:58:20.457Z,99750.38
2023-05-04T18:00:49.091Z,99748.97
2023-05-04T18:03:18.240Z,99746.84
2023-05-04T18:05:46.670Z,99761.53
2023-05-04T18:08:14.742Z,99756.75
2023-05-04T18:10:42.414Z,99752.66
2023-05-04T18:13:10.087Z,99761.56
2023-05-04T18:15:39.276Z,99765.25
2023-05-04T18:18:06.891Z,99761.81
2023-05-04T18:20:34.587Z,99761.88
2023-05-04T18:23:02.109Z,99765.53
2023-05-04T18:25:29.689Z,99764.59
2023-05-04T18:27:58.544Z,99771.75
2023-05-04T18:30:26.677Z,99768.19
2023-05-04T18:32:55.770Z,99781.41
2023-05-04T18:35:23.352Z,99782.28
2023-05-04T18:37:50.922Z,99785.31
2023-05-04T18:40:18.566Z,99794.22
2023-05-04T18:42:46.193Z,99789.28
2023-05-04T18:45:13.922Z,99794.13
2023-05-04T18:47:41.548Z,99799.72
2023-05-04T18:50:11.572Z,99815.25
2023-05-04T18:52:39.194Z,99812.47
2023-05-04T18:55:07.965Z,99819.25
2023-05-04T18:57:35.628Z,99818.91
2023-05-04T19:00:03.308Z,99829.88
2023-05-04T19:02:31.467Z,99830.47
2023-05-04T19:04:59.187Z,99830.88
2023-05-04T19:07:28.033Z,99838.38
2023-05-04T19:09:56.189Z,99839.78
2023-05-04T19:12:23.803Z,99843.53
2023-05-04T19:14:51.836Z,99848.31
2023-05-04T19:17:19.576Z,99857.41
2023-05-04T19:19:47.134Z,99853.31
2023-05-04T19:22:15.668Z,99853.50
2023-05-04T19:24:44.731Z,99859.78
2023-05-04T19:27:12.282Z,99861.94
2023-05-04T19:29:39.861Z,99862.34
2023-05-04T19:32:19.886Z,99865.97
2023-05-04T19:34:51.778Z,99863.34
2023-05-04T19:37:19.405Z,99860.91
2023-05-04T19:39:48.363Z,99868.13
2023-05-04T19:42:16.376Z,99870.91
2023-05-04T19:44:43.933Z,99864.97
2023-05-04T19:47:11.645Z,99869.41
2023-05-04T19:49:39.572Z,99870.38
2023-05-04T19:52:07.355Z,99867.81
2023-05-04T19:54:35.591Z,99871.44
2023-05-04T19:57:04.677Z,99869.78
2023-05-04T19:59:32.231Z,99872.53
2023-05-04T20:02:00.049Z,99872.56
2023-05-04T20:04:27.665Z,99867.44
2023-05-04T20:06:55.228Z,99869.19
2023-05-04T20:09:22.801Z,99872.69
2023-05-04T20:11:50.314Z,99878.00
2023-05-04T20:14:19.226Z,99878.06
2023-05-04T20:16:46.971Z,99880.72
2023-05-04T20:19:14.895Z,99879.88
2023-05-04T20:21:42.472Z,99874.72
2023-05-04T20:24:11.846Z,99873.00
2023-05-04T20:26:39.452Z,99881.72
2023-05-04T20:29:07.034Z,99883.50
2023-05-04T20:31:36.255Z,99877.44
2023-05-04T20:34:03.828Z,99878.34
2023-05-04T20:36:31.555Z,99876.63
2023-05-04T20:38:59.897Z,99880.97
2023-05-04T20:41:27.480Z,99878.41
2023-05-04T20:43:55.015Z,99878.44
2023-05-04T20:46:22.886Z,99868.03
2023-05-04T20:48:51.875Z,99875.00
2023-05-04T20:51:19.474Z,99875.06
2023-05-04T20:53:47.790Z,99869.00
2023-05-04T20:56:15.561Z,99878.59
2023-05-04T20:58:43.058Z,99875.13
2023-05-04T21:01:10.666Z,99871.69
2023-05-04T21:03:38.293Z,99883.84
2023-05-04T21:06:07.536Z,99869.97
2023-05-04T21:08:35.062Z,99872.63
2023-05-04T21:11:02.581Z,99872.63
2023-05-04T21:13:30.294Z,99876.97
2023-05-04T21:15:59.348Z,99882.19
2023-05-04T21:18:27.013Z,99873.53
2023-05-04T21:20:54.731Z,99871.81
2023-05-04T21:23:24.931Z,99870.97
2023-05-04T21:26:00.780Z,99878.81
2023-05-04T21:28:28.456Z,99875.38
2023-05-04T21:30:56.084Z,99873.63
2023-05-04T21:33:23.832Z,99878.00
2023-05-04T21:35:51.551Z,99876.28
2023-05-04T21:38:21.671Z,99872.81
2023-05-04T21:40:51.110Z,99872.00
2023-05-04T21:43:18.665Z,99877.22
2023-05-04T21:45:46.173Z,99880.66
2023-05-04T21:48:13.686Z,99880.66
2023-05-04T21:50:41.243Z,99878.91
2023-05-04T21:53:08.819Z,99885.84
2023-05-04T21:55:36.472Z,99883.25
2023-05-04T21:58:05.390Z,99887.59
2023-05-04T22:00:33.103Z,99886.72
2023-05-04T22:03:01.043Z,99887.59
2023-05-04T22:05:28.640Z,99882.41
2023-05-04T22:07:56.247Z,99884.13
2023-05-04T22:10:24.014Z,99889.31
2023-05-04T22:12:51.842Z,99893.63
2023-05-04T22:15:20.779Z,99891.88
2023-05-04T22:17:48.412Z,99891.03
2023-05-04T22:20:16.262Z,99892.75
2023-05-04T22:22:44.077Z,99898.81
2023-05-04T22:25:11.833Z,99890.13
2023-05-04T22:27:39.350Z,99897.91
2023-05-04T22:30:08.776Z,99899.66
2023-05-04T22:32:37.889Z,99899.63
2023-05-04T22:35:06.223Z,99899.63
2023-05-04T22:37:33.788Z,99904.78
2023-05-04T22:40:04.357Z,99909.09
2023-05-04T22:42:32.343Z,99913.38
2023-05-04T22:44:59.927Z,99916.78
2023-05-04T22:47:27.529Z,99924.56
2023-05-04T22:49:56.910Z,99920.22
2023-05-04T22:52:25.233Z,99921.06
2023-05-04T22:54:52.887Z,99927.97
2023-05-04T22:57:20.697Z,99921.81
2023-05-04T22:59:48.330Z,99926.94
2023-05-04T23:02:16.268Z,99924.25
2023-05-04T23:04:43.961Z,99932.03
2023-05-04T23:07:13.015Z,99928.56
2023-05-04T23:09:43.150Z,99934.59
2023-05-04T23:12:10.705Z,99930.25
2023-05-04T23:14:38.459Z,99933.66
2023-05-04T23:17:06.081Z,99936.22
2023-05-04T23:19:33.666Z,99932.72
2023-05-04T23:22:01.273Z,99937.91
2023-05-04T23:24:30.192Z,99941.34
2023-05-04T23:26:58.656Z,99936.94
2023-05-04T23:29:26.307Z,99943.75
2023-05-04T23:31:54.145Z,99945.44
2023-05-04T23:34:21.893Z,99940.22
2023-05-04T23:36:49.603Z,99942.78
2023-05-04T23:39:17.255Z,99939.28
2023-05-04T23:41:46.153Z,99941.88
2023-05-04T23:44:13.777Z,99935.78
2023-05-04T23:46:41.326Z,99938.34
2023-05-04T23:49:08.853Z,99938.31
2023-05-04T23:51:36.370Z,99938.22
2023-05-04T23:54:04.176Z,99944.25
2023-05-04T23:56:32.415Z,99939.88
2023-05-04T23:59:01.599Z,99942.47
